Terminal Aerodrome Forecast
Issued by NWS

Home | Current Version | Previous Version | Text Only | Print | Product List | Glossary On
Versions: 1 2 3 4 5 6 7 8 9 10 11 12 13 14 15 16 17 18 19 20 21 22 23
000
FTUS43 KSGF 241121
TAFJLN
TAF
KJLN 241121Z 2412/2512 32007KT P6SM OVC090
     FM241500 32008KT P6SM OVC035
     FM250000 31009KT P6SM SCT120
     FM251000 VRB03KT P6SM FEW120=

USA.gov is the U.S. government's official web portal to all federal, state and local government web resources and services.